KCOS

Colorado Springs

Airport
ICAO code
KCOS
Summary
ICAO Region
NAM
ICAO Territory
Location

Colorado Springs, Colorado,

Elevation
6187 ft
Coordinates
38° 48' 21" N , 104° 42' 3" W
KCC
Airport BS
Bird Strike
Airport LOS
Parallel Runway Operation
Airport RE
Hot and High Operations
Airport WX
Lightning
Metar
Observation
KCOS 281054Z 01005KT 10SM CLR M02/M11 A2968 RMK AO2 SLP063 T10221111 $
Station
Colorado Springs, City Of Colorado Springs Municipal Airport
Date/Time
2022-11-28 10:54:00
Wind direction
10°
Wind speed
05 kts
Lowest cloud amount
n/a
Temperature
-2.2°C
Dew point
-11.1°C
Humidity
50%
Weather condition
n/a

Description

Joint use civil and military (USAF) international airport located 6 nm south east of Colorado Springs.

Climatology

Semi-arid Steppe climate (Köppen climate classification BSk) - Little precipitation, hot summers and cold winters, sometimes with large changes in temperature in a 24 hour period.

Colorado Springs is also one of the most active lightning strike areas in the United States.

Airport map

Aerial View

SKYbrary Partners:

Safety knowledge contributed by: